createdAt,value
2018-08-23T00:01:40.103Z,16.07
2018-08-23T00:07:35.074Z,14.94
2018-08-23T00:13:30.099Z,14.92
2018-08-23T00:19:25.096Z,14.63
2018-08-23T00:25:20.058Z,15.08
2018-08-23T00:31:15.073Z,15.93
2018-08-23T00:37:10.075Z,16.04
2018-08-23T00:43:05.094Z,17.52
2018-08-23T00:49:00.104Z,17.73
2018-08-23T00:54:55.110Z,18.38
2018-08-23T01:00:50.170Z,21.25
2018-08-23T01:06:45.123Z,20.07
2018-08-23T01:12:40.118Z,17.72
2018-08-23T01:18:35.102Z,19.11
2018-08-23T01:24:30.145Z,14.75
2018-08-23T01:30:25.137Z,15.5
2018-08-23T01:36:20.133Z,16.37
2018-08-23T01:42:15.127Z,15.19
2018-08-23T01:48:10.147Z,17.31
2018-08-23T01:54:05.159Z,17.55
2018-08-23T02:00:00.148Z,18.75
2018-08-23T02:05:55.148Z,16.23
2018-08-23T02:11:50.149Z,19.2
2018-08-23T02:17:45.139Z,18.2
2018-08-23T02:23:40.186Z,16.6
2018-08-23T02:29:35.162Z,16.77
2018-08-23T02:35:30.174Z,18.81
2018-08-23T02:41:25.166Z,18.15
2018-08-23T02:47:20.196Z,18.09
2018-08-23T02:53:15.199Z,17.39
2018-08-23T02:59:10.241Z,20.74
2018-08-23T03:05:05.228Z,18.68
2018-08-23T03:11:00.203Z,18.89
2018-08-23T03:16:55.198Z,17.7
2018-08-23T03:22:50.219Z,19.11
2018-08-23T03:28:45.241Z,18.36
2018-08-23T03:34:40.215Z,18.83
2018-08-23T03:40:35.204Z,19.31
2018-08-23T03:46:30.331Z,18.32
2018-08-23T03:52:25.288Z,18.5
2018-08-23T03:58:20.235Z,20.19
2018-08-23T04:04:15.260Z,17.04
2018-08-23T04:10:10.279Z,17.02
2018-08-23T04:16:05.284Z,17.88
2018-08-23T04:22:00.240Z,16.94
2018-08-23T04:27:55.253Z,18.36
2018-08-23T04:33:50.272Z,20.85
2018-08-23T04:39:45.296Z,17.08
2018-08-23T04:45:40.276Z,25.29
2018-08-23T04:51:35.338Z,18.7
2018-08-23T04:57:30.306Z,18.85
2018-08-23T05:03:25.321Z,17.74
2018-08-23T05:09:20.303Z,18.21
2018-08-23T05:15:15.329Z,17.31
2018-08-23T05:21:10.302Z,19.05
2018-08-23T05:27:05.315Z,20.08
2018-08-23T05:33:00.294Z,18.33
2018-08-23T05:38:55.320Z,18.85
2018-08-23T05:44:50.323Z,19.08
2018-08-23T05:50:45.348Z,21.03
2018-08-23T05:56:40.348Z,21.27
2018-08-23T06:02:35.310Z,19.95
2018-08-23T06:08:30.323Z,21.28
2018-08-23T06:14:25.409Z,19.24
2018-08-23T06:20:20.325Z,23.77
2018-08-23T06:26:15.433Z,23.3
2018-08-23T06:32:10.364Z,24.66
2018-08-23T06:38:05.385Z,20.2
2018-08-23T06:44:00.373Z,19.8
2018-08-23T06:49:55.413Z,19.22
2018-08-23T06:55:50.367Z,21.81
2018-08-23T07:01:45.380Z,20.96
2018-08-23T07:07:40.384Z,24.9
2018-08-23T07:13:35.384Z,22.49
2018-08-23T07:19:30.420Z,26.32
2018-08-23T07:25:25.405Z,22.28
2018-08-23T07:31:20.401Z,23.8
2018-08-23T07:37:15.402Z,18.56
2018-08-23T07:43:10.552Z,23.42
2018-08-23T07:49:05.437Z,21.45
2018-08-23T07:55:00.404Z,15.72
2018-08-23T08:00:55.479Z,17.09
2018-08-23T08:06:50.432Z,19.82
2018-08-23T08:12:45.433Z,19.36
2018-08-23T08:18:40.422Z,19.05
2018-08-23T08:24:35.452Z,15.16
2018-08-23T08:30:30.457Z,15.36
2018-08-23T08:36:25.449Z,16.93
2018-08-23T08:42:20.492Z,16.8
2018-08-23T08:48:15.478Z,18.11
2018-08-23T08:54:10.453Z,11.99
2018-08-23T09:00:05.497Z,13.52
2018-08-23T09:06:00.496Z,11.61
2018-08-23T09:11:55.539Z,12.31
2018-08-23T09:17:50.487Z,12.79
2018-08-23T09:23:45.488Z,11.89
2018-08-23T09:29:40.477Z,9.93
2018-08-23T09:35:35.489Z,11.31
2018-08-23T09:41:30.511Z,10.44
2018-08-23T09:47:25.499Z,10.43
2018-08-23T09:53:20.513Z,8.5
2018-08-23T09:59:15.518Z,11.09
2018-08-23T10:05:10.514Z,8.47
2018-08-23T10:11:05.531Z,7.96
2018-08-23T10:17:00.522Z,8.53
2018-08-23T10:22:55.550Z,8.1
2018-08-23T10:28:50.530Z,8.05
2018-08-23T10:34:45.549Z,7.33
2018-08-23T10:40:40.577Z,7.7
2018-08-23T10:46:35.572Z,7.26
2018-08-23T10:52:30.589Z,7.1
2018-08-23T10:58:25.569Z,7.42
2018-08-23T11:04:20.581Z,6.94
2018-08-23T11:10:15.586Z,6.01
2018-08-23T11:16:10.598Z,6.42
2018-08-23T11:22:05.588Z,5.31
2018-08-23T11:28:00.633Z,5.39
2018-08-23T11:33:55.612Z,4.68
2018-08-23T11:39:50.620Z,5.09
2018-08-23T11:45:45.603Z,5.35
2018-08-23T11:51:40.807Z,5.49
2018-08-23T11:57:35.668Z,4.99
2018-08-23T12:03:30.638Z,5.14
2018-08-23T12:09:25.638Z,4.67
2018-08-23T12:15:20.648Z,4.96
2018-08-23T12:21:15.678Z,4.82
2018-08-23T12:27:10.652Z,29.28
2018-08-23T12:33:05.656Z,21.96
2018-08-23T12:39:00.672Z,26.27
2018-08-23T12:44:55.713Z,14.14
2018-08-23T12:50:50.697Z,29.04
2018-08-23T12:56:45.698Z,18.19
2018-08-23T13:02:40.904Z,11.19
2018-08-23T13:08:35.682Z,9.51
2018-08-23T13:14:30.724Z,11.23
2018-08-23T13:20:25.714Z,13.13
2018-08-23T13:26:20.725Z,15.6
2018-08-23T13:32:15.721Z,13.17
2018-08-23T13:38:10.743Z,18.76
2018-08-23T13:44:05.733Z,10.93
2018-08-23T13:50:00.749Z,10.62
2018-08-23T13:55:55.794Z,9.74
2018-08-23T14:01:50.823Z,9.63
2018-08-23T14:07:45.843Z,14.74
2018-08-23T14:13:40.749Z,13.69
2018-08-23T14:19:35.729Z,11.23
2018-08-23T14:25:30.771Z,12.01
2018-08-23T14:31:25.818Z,13.2
2018-08-23T14:37:20.754Z,14.1
2018-08-23T14:43:15.779Z,13.18
2018-08-23T14:49:10.772Z,10.91
2018-08-23T14:55:05.792Z,9.16
2018-08-23T15:01:00.816Z,10.04
2018-08-23T15:06:55.778Z,11.21
2018-08-23T15:12:50.786Z,9.13
2018-08-23T15:18:45.847Z,11.32
2018-08-23T15:24:40.801Z,10.73
2018-08-23T15:30:35.806Z,10.91
2018-08-23T15:36:30.808Z,9.53
2018-08-23T15:42:25.845Z,8.89
2018-08-23T15:48:20.813Z,9.83
2018-08-23T15:54:15.832Z,10.15
2018-08-23T16:00:10.833Z,9.78
2018-08-23T16:06:05.883Z,11.25
2018-08-23T16:12:00.901Z,8.89
2018-08-23T16:17:55.857Z,9.46
2018-08-23T16:23:50.904Z,10.18
2018-08-23T16:29:45.841Z,11.14
2018-08-23T16:35:40.868Z,10.01
2018-08-23T16:41:35.859Z,9.62
2018-08-23T16:47:30.887Z,9.87
2018-08-23T16:53:25.861Z,10.65
2018-08-23T16:59:20.874Z,9.96
2018-08-23T17:05:15.881Z,11.35
2018-08-23T17:11:10.887Z,9.92
2018-08-23T17:17:05.894Z,10.54
2018-08-23T17:23:00.917Z,19.49
2018-08-23T17:28:55.920Z,12.43
2018-08-23T17:34:50.897Z,11.36
2018-08-23T17:40:45.920Z,10.18
2018-08-23T17:46:40.910Z,9.74
2018-08-23T17:52:35.949Z,15.23
2018-08-23T17:58:30.970Z,11.47
2018-08-23T18:04:25.955Z,11.51
2018-08-23T18:10:20.952Z,12.56
2018-08-23T18:16:15.980Z,11.34
2018-08-23T18:22:10.997Z,11.83
2018-08-23T18:28:05.963Z,10.49
2018-08-23T18:34:00.948Z,10.87
2018-08-23T18:39:55.968Z,11.46
2018-08-23T18:45:51.013Z,13.74
2018-08-23T18:51:45.987Z,14.46
2018-08-23T18:57:40.963Z,12.01
2018-08-23T19:03:35.982Z,13.77
2018-08-23T19:09:31.010Z,15.24
2018-08-23T19:15:25.998Z,14.45
2018-08-23T19:21:20.992Z,14.2
2018-08-23T19:27:15.999Z,16.5
2018-08-23T19:33:11.018Z,13.46
2018-08-23T19:39:05.996Z,15.98
2018-08-23T19:45:01.017Z,16.2
2018-08-23T19:50:56.080Z,13.44
2018-08-23T19:56:51.031Z,11.71
2018-08-23T20:02:46.043Z,12.15
2018-08-23T20:08:41.035Z,12.32
2018-08-23T20:14:36.078Z,11.13
2018-08-23T20:20:31.036Z,12.72
2018-08-23T20:26:26.062Z,14.53
2018-08-23T20:32:21.250Z,11.98
2018-08-23T20:38:16.058Z,12.69
2018-08-23T20:44:11.060Z,12.56
2018-08-23T20:50:06.104Z,14.63
2018-08-23T20:56:01.060Z,13.97
2018-08-23T21:01:56.109Z,13.12
2018-08-23T21:07:51.099Z,15.25
2018-08-23T21:13:46.131Z,12.9
2018-08-23T21:19:41.133Z,15.48
2018-08-23T21:25:36.090Z,18.02
2018-08-23T21:31:31.110Z,16.53
2018-08-23T21:37:26.091Z,14.29
2018-08-23T21:43:21.121Z,15.14
2018-08-23T21:49:16.152Z,17.96
2018-08-23T21:55:11.199Z,13.15
2018-08-23T22:01:06.192Z,18.32
2018-08-23T22:07:02.295Z,13.86
2018-08-23T22:12:56.137Z,17.16
2018-08-23T22:18:51.134Z,20.35
2018-08-23T22:24:46.139Z,14.55
2018-08-23T22:30:41.182Z,18.04
2018-08-23T22:36:36.143Z,17.44
2018-08-23T22:42:31.207Z,19.27
2018-08-23T22:48:26.151Z,15.38
2018-08-23T22:54:21.152Z,17.3
2018-08-23T23:00:16.169Z,15.04
2018-08-23T23:06:11.157Z,18.51
2018-08-23T23:12:06.180Z,18.17
2018-08-23T23:18:01.241Z,15.95
2018-08-23T23:23:56.192Z,15.51
2018-08-23T23:29:51.187Z,16.47
2018-08-23T23:35:46.208Z,19.53
2018-08-23T23:41:41.206Z,16.57
2018-08-23T23:47:36.205Z,20.21
2018-08-23T23:53:31.197Z,18.49
2018-08-23T23:59:26.213Z,19.18
